<?xml version="1.0" encoding="UTF-8" standalone="no" ?>
<gpx xmlns="http://www.topografix.com/GPX/1/1" xmlns:xsi="http://www.w3.org/2001/XMLSchema-instance" xsi:schemaLocation="http://www.topografix.com/GPX/1/1 http://www.topografix.com/GPX/1/1/gpx.xsd" version="1.1" creator="VisuGPX - https://www.visugpx.com">
  <metadata>
    <name>Calvisson - Congénies</name>
    <desc><![CDATA[File with points/tracks from Locus Map Classic/3.61.0]]></desc>
  </metadata>
  <trk>
    <name><![CDATA[2022-07-24 09:06]]></name>
    <trkseg>
      <trkpt lat="43.78709" lon="4.16951">
        <ele>108.97877087312</ele>
        <time>2022-07-24T07:06:57.249Z</time>
      </trkpt>
      <trkpt lat="43.78707" lon="4.16946">
        <ele>109.30141022689</ele>
        <time>2022-07-24T07:07:07.000Z</time>
      </trkpt>
      <trkpt lat="43.78704" lon="4.16946">
        <ele>109.61827926446</ele>
        <time>2022-07-24T07:07:17.000Z</time>
      </trkpt>
      <trkpt lat="43.78702" lon="4.16946">
        <ele>109.83642553354</ele>
        <time>2022-07-24T07:07:28.044Z</time>
      </trkpt>
      <trkpt lat="43.78697" lon="4.16954">
        <ele>110.42995390186</ele>
        <time>2022-07-24T07:07:37.062Z</time>
      </trkpt>
      <trkpt lat="43.78699" lon="4.16968">
        <ele>109.99374747896</ele>
        <time>2022-07-24T07:07:46.418Z</time>
      </trkpt>
      <trkpt lat="43.78695" lon="4.16975">
        <ele>110.71355243185</ele>
        <time>2022-07-24T07:07:55.739Z</time>
      </trkpt>
      <trkpt lat="43.78685" lon="4.16985">
        <ele>112.25433733118</ele>
        <time>2022-07-24T07:08:05.259Z</time>
      </trkpt>
      <trkpt lat="43.78676" lon="4.16995">
        <ele>113.57440448626</ele>
        <time>2022-07-24T07:08:14.398Z</time>
      </trkpt>
      <trkpt lat="43.78667" lon="4.17008">
        <ele>114.48077273415</ele>
        <time>2022-07-24T07:08:23.735Z</time>
      </trkpt>
      <trkpt lat="43.78666" lon="4.17022">
        <ele>114.85167389402</ele>
        <time>2022-07-24T07:08:33.116Z</time>
      </trkpt>
      <trkpt lat="43.78663" lon="4.17035">
        <ele>115.31479629383</ele>
        <time>2022-07-24T07:08:43.175Z</time>
      </trkpt>
      <trkpt lat="43.78657" lon="4.17049">
        <ele>115.82806499128</ele>
        <time>2022-07-24T07:08:52.598Z</time>
      </trkpt>
      <trkpt lat="43.78649" lon="4.17063">
        <ele>116.4093174396</ele>
        <time>2022-07-24T07:09:02.136Z</time>
      </trkpt>
      <trkpt lat="43.78644" lon="4.17077">
        <ele>116.63649237318</ele>
        <time>2022-07-24T07:09:11.213Z</time>
      </trkpt>
      <trkpt lat="43.78636" lon="4.17087">
        <ele>116.89457912907</ele>
        <time>2022-07-24T07:09:20.516Z</time>
      </trkpt>
      <trkpt lat="43.78623" lon="4.17089">
        <ele>116.75918049539</ele>
        <time>2022-07-24T07:09:29.574Z</time>
      </trkpt>
      <trkpt lat="43.78613" lon="4.17102">
        <ele>117.02181107709</ele>
        <time>2022-07-24T07:09:39.076Z</time>
      </trkpt>
      <trkpt lat="43.78603" lon="4.17105">
        <ele>117.10001429329</ele>
        <time>2022-07-24T07:09:48.654Z</time>
      </trkpt>
      <trkpt lat="43.78593" lon="4.17109">
        <ele>117.28491530628</ele>
        <time>2022-07-24T07:09:58.096Z</time>
      </trkpt>
      <trkpt lat="43.78586" lon="4.17117">
        <ele>117.89497746831</ele>
        <time>2022-07-24T07:10:07.496Z</time>
      </trkpt>
      <trkpt lat="43.78575" lon="4.17119">
        <ele>118.09925292115</ele>
        <time>2022-07-24T07:10:16.696Z</time>
      </trkpt>
      <trkpt lat="43.78566" lon="4.17117">
        <ele>118.18923717239</ele>
        <time>2022-07-24T07:10:25.907Z</time>
      </trkpt>
      <trkpt lat="43.78555" lon="4.17111">
        <ele>117.91671457135</ele>
        <time>2022-07-24T07:10:35.000Z</time>
      </trkpt>
      <trkpt lat="43.78545" lon="4.1711">
        <ele>118.32897368395</ele>
        <time>2022-07-24T07:10:45.037Z</time>
      </trkpt>
      <trkpt lat="43.78537" lon="4.17117">
        <ele>119.2574157274</ele>
        <time>2022-07-24T07:10:54.194Z</time>
      </trkpt>
      <trkpt lat="43.78528" lon="4.17124">
        <ele>120.13610979378</ele>
        <time>2022-07-24T07:11:03.597Z</time>
      </trkpt>
      <trkpt lat="43.78518" lon="4.17127">
        <ele>120.60234267168</ele>
        <time>2022-07-24T07:11:12.877Z</time>
      </trkpt>
      <trkpt lat="43.78507" lon="4.17136">
        <ele>121.17251748817</ele>
        <time>2022-07-24T07:11:22.577Z</time>
      </trkpt>
      <trkpt lat="43.78497" lon="4.17144">
        <ele>121.30371322053</ele>
        <time>2022-07-24T07:11:31.819Z</time>
      </trkpt>
      <trkpt lat="43.78488" lon="4.17161">
        <ele>121.3505265925</ele>
        <time>2022-07-24T07:11:41.678Z</time>
      </trkpt>
      <trkpt lat="43.78482" lon="4.17178">
        <ele>120.95818054636</ele>
        <time>2022-07-24T07:11:50.935Z</time>
      </trkpt>
      <trkpt lat="43.78479" lon="4.17193">
        <ele>120.7297436389</ele>
        <time>2022-07-24T07:12:00.718Z</time>
      </trkpt>
      <trkpt lat="43.78479" lon="4.1721">
        <ele>120.92639611912</ele>
        <time>2022-07-24T07:12:10.137Z</time>
      </trkpt>
      <trkpt lat="43.78484" lon="4.17227">
        <ele>121.80579447298</ele>
        <time>2022-07-24T07:12:19.948Z</time>
      </trkpt>
      <trkpt lat="43.78484" lon="4.17239">
        <ele>121.98466870424</ele>
        <time>2022-07-24T07:12:29.216Z</time>
      </trkpt>
      <trkpt lat="43.78481" lon="4.17254">
        <ele>121.94389265995</ele>
        <time>2022-07-24T07:12:39.100Z</time>
      </trkpt>
      <trkpt lat="43.78481" lon="4.1727">
        <ele>122.34603343346</ele>
        <time>2022-07-24T07:12:48.929Z</time>
      </trkpt>
      <trkpt lat="43.78478" lon="4.17286">
        <ele>122.57156023522</ele>
        <time>2022-07-24T07:12:58.817Z</time>
      </trkpt>
      <trkpt lat="43.78479" lon="4.17301">
        <ele>123.02726415385</ele>
        <time>2022-07-24T07:13:09.155Z</time>
      </trkpt>
      <trkpt lat="43.78482" lon="4.17314">
        <ele>123.4990093565</ele>
        <time>2022-07-24T07:13:18.817Z</time>
      </trkpt>
      <trkpt lat="43.78489" lon="4.17327">
        <ele>124.22509423886</ele>
        <time>2022-07-24T07:13:28.263Z</time>
      </trkpt>
      <trkpt lat="43.78492" lon="4.17343">
        <ele>124.44747281269</ele>
        <time>2022-07-24T07:13:37.856Z</time>
      </trkpt>
      <trkpt lat="43.78497" lon="4.1736">
        <ele>124.882179023</ele>
        <time>2022-07-24T07:13:47.074Z</time>
      </trkpt>
      <trkpt lat="43.78503" lon="4.17377">
        <ele>125.1780537976</ele>
        <time>2022-07-24T07:13:56.616Z</time>
      </trkpt>
      <trkpt lat="43.78511" lon="4.17393">
        <ele>125.65613821801</ele>
        <time>2022-07-24T07:14:05.834Z</time>
      </trkpt>
      <trkpt lat="43.78513" lon="4.17411">
        <ele>126.10424661384</ele>
        <time>2022-07-24T07:14:15.194Z</time>
      </trkpt>
      <trkpt lat="43.78517" lon="4.17426">
        <ele>126.74336787711</ele>
        <time>2022-07-24T07:14:24.454Z</time>
      </trkpt>
      <trkpt lat="43.78522" lon="4.17439">
        <ele>127.27602597038</ele>
        <time>2022-07-24T07:14:33.948Z</time>
      </trkpt>
      <trkpt lat="43.78532" lon="4.17451">
        <ele>127.83610174206</ele>
        <time>2022-07-24T07:14:43.875Z</time>
      </trkpt>
      <trkpt lat="43.78542" lon="4.17463">
        <ele>128.1631977837</ele>
        <time>2022-07-24T07:14:53.132Z</time>
      </trkpt>
      <trkpt lat="43.7855" lon="4.17457">
        <ele>127.6858065565</ele>
        <time>2022-07-24T07:15:02.775Z</time>
      </trkpt>
      <trkpt lat="43.78557" lon="4.17466">
        <ele>127.49244656745</ele>
        <time>2022-07-24T07:15:12.279Z</time>
      </trkpt>
      <trkpt lat="43.78566" lon="4.17477">
        <ele>126.7088151813</ele>
        <time>2022-07-24T07:15:22.199Z</time>
      </trkpt>
      <trkpt lat="43.78569" lon="4.17493">
        <ele>126.06078867284</ele>
        <time>2022-07-24T07:15:32.160Z</time>
      </trkpt>
      <trkpt lat="43.7857" lon="4.1751">
        <ele>125.20769181732</ele>
        <time>2022-07-24T07:15:42.062Z</time>
      </trkpt>
      <trkpt lat="43.78572" lon="4.17527">
        <ele>124.30742778743</ele>
        <time>2022-07-24T07:15:51.862Z</time>
      </trkpt>
      <trkpt lat="43.78574" lon="4.17545">
        <ele>123.48967649548</ele>
        <time>2022-07-24T07:16:01.562Z</time>
      </trkpt>
      <trkpt lat="43.78576" lon="4.17562">
        <ele>122.71136369527</ele>
        <time>2022-07-24T07:16:11.081Z</time>
      </trkpt>
      <trkpt lat="43.78581" lon="4.17579">
        <ele>121.59164282197</ele>
        <time>2022-07-24T07:16:20.921Z</time>
      </trkpt>
      <trkpt lat="43.78584" lon="4.17596">
        <ele>121.22148932666</ele>
        <time>2022-07-24T07:16:30.922Z</time>
      </trkpt>
      <trkpt lat="43.78587" lon="4.1761">
        <ele>120.48851288318</ele>
        <time>2022-07-24T07:16:40.156Z</time>
      </trkpt>
      <trkpt lat="43.78594" lon="4.17629">
        <ele>118.90696730871</ele>
        <time>2022-07-24T07:16:49.924Z</time>
      </trkpt>
      <trkpt lat="43.786" lon="4.17646">
        <ele>116.85665751472</ele>
        <time>2022-07-24T07:16:59.212Z</time>
      </trkpt>
      <trkpt lat="43.78606" lon="4.17663">
        <ele>114.55150413026</ele>
        <time>2022-07-24T07:17:08.684Z</time>
      </trkpt>
      <trkpt lat="43.78609" lon="4.17679">
        <ele>112.71351476906</ele>
        <time>2022-07-24T07:17:18.753Z</time>
      </trkpt>
      <trkpt lat="43.78609" lon="4.17697">
        <ele>111.22500929213</ele>
        <time>2022-07-24T07:17:28.212Z</time>
      </trkpt>
      <trkpt lat="43.78609" lon="4.17714">
        <ele>109.40182852022</ele>
        <time>2022-07-24T07:17:37.797Z</time>
      </trkpt>
      <trkpt lat="43.78609" lon="4.17729">
        <ele>107.80957751387</ele>
        <time>2022-07-24T07:17:47.256Z</time>
      </trkpt>
      <trkpt lat="43.78608" lon="4.17743">
        <ele>106.38611523518</ele>
        <time>2022-07-24T07:17:57.084Z</time>
      </trkpt>
      <trkpt lat="43.78608" lon="4.1776">
        <ele>104.39346137454</ele>
        <time>2022-07-24T07:18:06.983Z</time>
      </trkpt>
      <trkpt lat="43.78608" lon="4.17776">
        <ele>102.60936549042</ele>
        <time>2022-07-24T07:18:16.930Z</time>
      </trkpt>
      <trkpt lat="43.78609" lon="4.17788">
        <ele>100.91531205011</ele>
        <time>2022-07-24T07:18:26.160Z</time>
      </trkpt>
      <trkpt lat="43.7861" lon="4.17803">
        <ele>98.956162351309</ele>
        <time>2022-07-24T07:18:35.522Z</time>
      </trkpt>
      <trkpt lat="43.78609" lon="4.17819">
        <ele>97.426219568253</ele>
        <time>2022-07-24T07:18:45.639Z</time>
      </trkpt>
      <trkpt lat="43.78608" lon="4.17837">
        <ele>95.1916146325</ele>
        <time>2022-07-24T07:18:54.999Z</time>
      </trkpt>
      <trkpt lat="43.78601" lon="4.1785">
        <ele>94.140151105242</ele>
        <time>2022-07-24T07:19:04.977Z</time>
      </trkpt>
      <trkpt lat="43.78594" lon="4.17864">
        <ele>92.434883574292</ele>
        <time>2022-07-24T07:19:14.996Z</time>
      </trkpt>
      <trkpt lat="43.78584" lon="4.17868">
        <ele>91.892882960951</ele>
        <time>2022-07-24T07:19:24.796Z</time>
      </trkpt>
      <trkpt lat="43.78574" lon="4.17874">
        <ele>90.735107369988</ele>
        <time>2022-07-24T07:19:34.996Z</time>
      </trkpt>
      <trkpt lat="43.78561" lon="4.17879">
        <ele>89.14089700519</ele>
        <time>2022-07-24T07:19:43.999Z</time>
      </trkpt>
      <trkpt lat="43.78551" lon="4.17882">
        <ele>88.279182286297</ele>
        <time>2022-07-24T07:19:53.135Z</time>
      </trkpt>
      <trkpt lat="43.7854" lon="4.17885">
        <ele>88.249734503458</ele>
        <time>2022-07-24T07:20:03.135Z</time>
      </trkpt>
      <trkpt lat="43.78532" lon="4.1788">
        <ele>89.275144647687</ele>
        <time>2022-07-24T07:20:12.436Z</time>
      </trkpt>
      <trkpt lat="43.78521" lon="4.17877">
        <ele>90.331209253835</ele>
        <time>2022-07-24T07:20:21.836Z</time>
      </trkpt>
      <trkpt lat="43.78508" lon="4.17875">
        <ele>91.269762307668</ele>
        <time>2022-07-24T07:20:31.153Z</time>
      </trkpt>
      <trkpt lat="43.78495" lon="4.17879">
        <ele>92.166011891563</ele>
        <time>2022-07-24T07:20:40.796Z</time>
      </trkpt>
      <trkpt lat="43.78483" lon="4.17879">
        <ele>93.40286856998</ele>
        <time>2022-07-24T07:20:49.952Z</time>
      </trkpt>
      <trkpt lat="43.78473" lon="4.17874">
        <ele>94.080715720609</ele>
        <time>2022-07-24T07:20:59.104Z</time>
      </trkpt>
      <trkpt lat="43.7846" lon="4.17873">
        <ele>95.258271853108</ele>
        <time>2022-07-24T07:21:10.266Z</time>
      </trkpt>
      <trkpt lat="43.78448" lon="4.17871">
        <ele>96.764204859387</ele>
        <time>2022-07-24T07:21:19.944Z</time>
      </trkpt>
      <trkpt lat="43.78438" lon="4.17873">
        <ele>97.321583699784</ele>
        <time>2022-07-24T07:21:29.119Z</time>
      </trkpt>
      <trkpt lat="43.78424" lon="4.17871">
        <ele>98.739483572517</ele>
        <time>2022-07-24T07:21:38.980Z</time>
      </trkpt>
      <trkpt lat="43.7841" lon="4.1787">
        <ele>100.03949965427</ele>
        <time>2022-07-24T07:21:48.797Z</time>
      </trkpt>
      <trkpt lat="43.78398" lon="4.1787">
        <ele>100.89702115469</ele>
        <time>2022-07-24T07:21:58.922Z</time>
      </trkpt>
      <trkpt lat="43.78386" lon="4.1787">
        <ele>102.32382918846</ele>
        <time>2022-07-24T07:22:08.193Z</time>
      </trkpt>
      <trkpt lat="43.78374" lon="4.17875">
        <ele>102.56604548848</ele>
        <time>2022-07-24T07:22:17.976Z</time>
      </trkpt>
      <trkpt lat="43.78362" lon="4.17878">
        <ele>104.45102499249</ele>
        <time>2022-07-24T07:22:27.776Z</time>
      </trkpt>
      <trkpt lat="43.78348" lon="4.17878">
        <ele>105.80089810959</ele>
        <time>2022-07-24T07:22:37.975Z</time>
      </trkpt>
      <trkpt lat="43.78338" lon="4.17872">
        <ele>106.7825619206</ele>
        <time>2022-07-24T07:22:47.016Z</time>
      </trkpt>
      <trkpt lat="43.78327" lon="4.17867">
        <ele>108.25962137254</ele>
        <time>2022-07-24T07:22:56.135Z</time>
      </trkpt>
      <trkpt lat="43.78315" lon="4.17865">
        <ele>109.50930882808</ele>
        <time>2022-07-24T07:23:05.564Z</time>
      </trkpt>
      <trkpt lat="43.78304" lon="4.17865">
        <ele>110.58570291162</ele>
        <time>2022-07-24T07:23:15.892Z</time>
      </trkpt>
      <trkpt lat="43.78293" lon="4.17864">
        <ele>111.62843134409</ele>
        <time>2022-07-24T07:23:25.822Z</time>
      </trkpt>
      <trkpt lat="43.78284" lon="4.17863">
        <ele>112.75615702304</ele>
        <time>2022-07-24T07:23:34.861Z</time>
      </trkpt>
      <trkpt lat="43.78273" lon="4.17866">
        <ele>114.04667113885</ele>
        <time>2022-07-24T07:23:44.178Z</time>
      </trkpt>
      <trkpt lat="43.78263" lon="4.17874">
        <ele>115.05228516317</ele>
        <time>2022-07-24T07:23:53.959Z</time>
      </trkpt>
      <trkpt lat="43.78252" lon="4.17874">
        <ele>115.79396451384</ele>
        <time>2022-07-24T07:24:03.479Z</time>
      </trkpt>
      <trkpt lat="43.78242" lon="4.17872">
        <ele>116.91749857847</ele>
        <time>2022-07-24T07:24:12.961Z</time>
      </trkpt>
      <trkpt lat="43.78232" lon="4.17875">
        <ele>117.9115306452</ele>
        <time>2022-07-24T07:24:22.578Z</time>
      </trkpt>
      <trkpt lat="43.7822" lon="4.17877">
        <ele>119.22874005193</ele>
        <time>2022-07-24T07:24:31.799Z</time>
      </trkpt>
      <trkpt lat="43.78209" lon="4.1788">
        <ele>120.53218704358</ele>
        <time>2022-07-24T07:24:40.936Z</time>
      </trkpt>
      <trkpt lat="43.78197" lon="4.17882">
        <ele>122.02735532065</ele>
        <time>2022-07-24T07:24:50.254Z</time>
      </trkpt>
      <trkpt lat="43.78184" lon="4.17885">
        <ele>124.08447447396</ele>
        <time>2022-07-24T07:25:00.035Z</time>
      </trkpt>
      <trkpt lat="43.78174" lon="4.17893">
        <ele>125.36204756081</ele>
        <time>2022-07-24T07:25:10.096Z</time>
      </trkpt>
      <trkpt lat="43.78167" lon="4.17903">
        <ele>126.69571620197</ele>
        <time>2022-07-24T07:25:19.675Z</time>
      </trkpt>
      <trkpt lat="43.7816" lon="4.17914">
        <ele>126.89001366672</ele>
        <time>2022-07-24T07:25:28.855Z</time>
      </trkpt>
      <trkpt lat="43.7815" lon="4.17919">
        <ele>125.42498698013</ele>
        <time>2022-07-24T07:25:38.131Z</time>
      </trkpt>
      <trkpt lat="43.78142" lon="4.17917">
        <ele>123.65996726137</ele>
        <time>2022-07-24T07:25:47.583Z</time>
      </trkpt>
      <trkpt lat="43.7814" lon="4.17918">
        <ele>123.2477446806</ele>
        <time>2022-07-24T07:25:57.000Z</time>
      </trkpt>
      <trkpt lat="43.78137" lon="4.17917">
        <ele>122.72953271147</ele>
        <time>2022-07-24T07:26:07.000Z</time>
      </trkpt>
      <trkpt lat="43.78132" lon="4.17915">
        <ele>121.82524515024</ele>
        <time>2022-07-24T07:26:17.002Z</time>
      </trkpt>
      <trkpt lat="43.78122" lon="4.17914">
        <ele>120.30647115987</ele>
        <time>2022-07-24T07:26:26.100Z</time>
      </trkpt>
      <trkpt lat="43.7811" lon="4.17913">
        <ele>118.78082234495</ele>
        <time>2022-07-24T07:26:36.580Z</time>
      </trkpt>
      <trkpt lat="43.78104" lon="4.17905">
        <ele>120.07004195351</ele>
        <time>2022-07-24T07:26:46.158Z</time>
      </trkpt>
      <trkpt lat="43.78102" lon="4.179">
        <ele>121.04293862544</ele>
        <time>2022-07-24T07:26:55.758Z</time>
      </trkpt>
      <trkpt lat="43.78085" lon="4.17879">
        <ele>122.92132964816</ele>
        <time>2022-07-24T07:27:05.000Z</time>
      </trkpt>
      <trkpt lat="43.78077" lon="4.17861">
        <ele>125.28279736533</ele>
        <time>2022-07-24T07:27:14.058Z</time>
      </trkpt>
      <trkpt lat="43.78066" lon="4.17847">
        <ele>125.28228600488</ele>
        <time>2022-07-24T07:27:24.076Z</time>
      </trkpt>
      <trkpt lat="43.78059" lon="4.17834">
        <ele>125.91061427496</ele>
        <time>2022-07-24T07:27:33.231Z</time>
      </trkpt>
      <trkpt lat="43.78051" lon="4.17819">
        <ele>126.61830550612</ele>
        <time>2022-07-24T07:27:42.597Z</time>
      </trkpt>
      <trkpt lat="43.78044" lon="4.17806">
        <ele>127.73359185839</ele>
        <time>2022-07-24T07:27:51.695Z</time>
      </trkpt>
      <trkpt lat="43.78042" lon="4.17788">
        <ele>129.52993771658</ele>
        <time>2022-07-24T07:28:01.918Z</time>
      </trkpt>
      <trkpt lat="43.78045" lon="4.17772">
        <ele>130.17245686055</ele>
        <time>2022-07-24T07:28:11.816Z</time>
      </trkpt>
      <trkpt lat="43.7805" lon="4.17757">
        <ele>129.41428273854</ele>
        <time>2022-07-24T07:28:21.174Z</time>
      </trkpt>
      <trkpt lat="43.78055" lon="4.1774">
        <ele>128.63670229135</ele>
        <time>2022-07-24T07:28:30.644Z</time>
      </trkpt>
      <trkpt lat="43.7806" lon="4.17723">
        <ele>127.89646827447</ele>
        <time>2022-07-24T07:28:40.003Z</time>
      </trkpt>
      <trkpt lat="43.78066" lon="4.17704">
        <ele>127.33237689388</ele>
        <time>2022-07-24T07:28:49.576Z</time>
      </trkpt>
      <trkpt lat="43.78074" lon="4.17689">
        <ele>127.6919211549</ele>
        <time>2022-07-24T07:29:00.192Z</time>
      </trkpt>
      <trkpt lat="43.78078" lon="4.17675">
        <ele>127.39776507605</ele>
        <time>2022-07-24T07:29:09.219Z</time>
      </trkpt>
      <trkpt lat="43.78087" lon="4.17661">
        <ele>128.00114339462</ele>
        <time>2022-07-24T07:29:18.662Z</time>
      </trkpt>
      <trkpt lat="43.78094" lon="4.17648">
        <ele>128.05458359548</ele>
        <time>2022-07-24T07:29:28.742Z</time>
      </trkpt>
      <trkpt lat="43.78102" lon="4.17631">
        <ele>127.91080189046</ele>
        <time>2022-07-24T07:29:38.703Z</time>
      </trkpt>
      <trkpt lat="43.78109" lon="4.17619">
        <ele>127.34644548351</ele>
        <time>2022-07-24T07:29:48.061Z</time>
      </trkpt>
      <trkpt lat="43.78118" lon="4.17609">
        <ele>127.14741248955</ele>
        <time>2022-07-24T07:29:57.801Z</time>
      </trkpt>
      <trkpt lat="43.78129" lon="4.17603">
        <ele>128.07920671666</ele>
        <time>2022-07-24T07:30:07.083Z</time>
      </trkpt>
      <trkpt lat="43.78139" lon="4.17597">
        <ele>128.73256509382</ele>
        <time>2022-07-24T07:30:16.562Z</time>
      </trkpt>
      <trkpt lat="43.78151" lon="4.17588">
        <ele>129.04481762914</ele>
        <time>2022-07-24T07:30:25.640Z</time>
      </trkpt>
      <trkpt lat="43.7816" lon="4.17575">
        <ele>128.45658813044</ele>
        <time>2022-07-24T07:30:34.961Z</time>
      </trkpt>
      <trkpt lat="43.78167" lon="4.17558">
        <ele>126.36052112301</ele>
        <time>2022-07-24T07:30:45.081Z</time>
      </trkpt>
      <trkpt lat="43.78175" lon="4.17553">
        <ele>126.58921567792</ele>
        <time>2022-07-24T07:30:54.817Z</time>
      </trkpt>
      <trkpt lat="43.78185" lon="4.17541">
        <ele>126.23504282435</ele>
        <time>2022-07-24T07:31:03.932Z</time>
      </trkpt>
      <trkpt lat="43.78192" lon="4.17531">
        <ele>125.55276199287</ele>
        <time>2022-07-24T07:31:13.115Z</time>
      </trkpt>
      <trkpt lat="43.78202" lon="4.17518">
        <ele>125.08411785315</ele>
        <time>2022-07-24T07:31:22.174Z</time>
      </trkpt>
      <trkpt lat="43.78208" lon="4.17504">
        <ele>124.10914010757</ele>
        <time>2022-07-24T07:31:31.796Z</time>
      </trkpt>
      <trkpt lat="43.78213" lon="4.17485">
        <ele>122.14392364685</ele>
        <time>2022-07-24T07:31:41.096Z</time>
      </trkpt>
      <trkpt lat="43.78219" lon="4.17467">
        <ele>122.12049848707</ele>
        <time>2022-07-24T07:31:50.153Z</time>
      </trkpt>
      <trkpt lat="43.78229" lon="4.17458">
        <ele>124.59134216569</ele>
        <time>2022-07-24T07:31:59.375Z</time>
      </trkpt>
      <trkpt lat="43.78232" lon="4.17443">
        <ele>124.98659689182</ele>
        <time>2022-07-24T07:32:08.844Z</time>
      </trkpt>
      <trkpt lat="43.78231" lon="4.17423">
        <ele>124.92198418616</ele>
        <time>2022-07-24T07:32:18.844Z</time>
      </trkpt>
      <trkpt lat="43.78234" lon="4.17403">
        <ele>126.0848958218</ele>
        <time>2022-07-24T07:32:27.999Z</time>
      </trkpt>
      <trkpt lat="43.78231" lon="4.17389">
        <ele>126.45684182728</ele>
        <time>2022-07-24T07:32:37.123Z</time>
      </trkpt>
      <trkpt lat="43.78225" lon="4.17371">
        <ele>127.22637580611</ele>
        <time>2022-07-24T07:32:46.942Z</time>
      </trkpt>
      <trkpt lat="43.78226" lon="4.17355">
        <ele>127.75155734617</ele>
        <time>2022-07-24T07:32:56.242Z</time>
      </trkpt>
      <trkpt lat="43.7822" lon="4.17341">
        <ele>127.77721211692</ele>
        <time>2022-07-24T07:33:05.503Z</time>
      </trkpt>
      <trkpt lat="43.7822" lon="4.17325">
        <ele>127.84353678041</ele>
        <time>2022-07-24T07:33:15.264Z</time>
      </trkpt>
      <trkpt lat="43.7822" lon="4.17309">
        <ele>128.01038046584</ele>
        <time>2022-07-24T07:33:25.005Z</time>
      </trkpt>
      <trkpt lat="43.78217" lon="4.17291">
        <ele>127.84692878744</ele>
        <time>2022-07-24T07:33:34.929Z</time>
      </trkpt>
      <trkpt lat="43.7821" lon="4.17277">
        <ele>127.70342360091</ele>
        <time>2022-07-24T07:33:44.782Z</time>
      </trkpt>
      <trkpt lat="43.78202" lon="4.17263">
        <ele>127.49610960403</ele>
        <time>2022-07-24T07:33:54.139Z</time>
      </trkpt>
      <trkpt lat="43.78192" lon="4.17253">
        <ele>127.47754046779</ele>
        <time>2022-07-24T07:34:05.159Z</time>
      </trkpt>
      <trkpt lat="43.78191" lon="4.1725">
        <ele>127.44838013089</ele>
        <time>2022-07-24T07:34:14.999Z</time>
      </trkpt>
      <trkpt lat="43.78192" lon="4.17248">
        <ele>127.37843921334</ele>
        <time>2022-07-24T07:34:24.999Z</time>
      </trkpt>
      <trkpt lat="43.78191" lon="4.17249">
        <ele>127.43302046814</ele>
        <time>2022-07-24T07:34:34.999Z</time>
      </trkpt>
      <trkpt lat="43.78186" lon="4.17246">
        <ele>127.52512755644</ele>
        <time>2022-07-24T07:34:44.101Z</time>
      </trkpt>
      <trkpt lat="43.78179" lon="4.17234">
        <ele>127.44592843295</ele>
        <time>2022-07-24T07:34:53.908Z</time>
      </trkpt>
      <trkpt lat="43.78172" lon="4.17217">
        <ele>127.22975707467</ele>
        <time>2022-07-24T07:35:03.499Z</time>
      </trkpt>
      <trkpt lat="43.78164" lon="4.17201">
        <ele>127.60380338297</ele>
        <time>2022-07-24T07:35:13.000Z</time>
      </trkpt>
      <trkpt lat="43.78157" lon="4.1719">
        <ele>127.76113219255</ele>
        <time>2022-07-24T07:35:22.136Z</time>
      </trkpt>
      <trkpt lat="43.78149" lon="4.17177">
        <ele>127.25606586763</ele>
        <time>2022-07-24T07:35:31.379Z</time>
      </trkpt>
      <trkpt lat="43.7814" lon="4.17164">
        <ele>126.23242133959</ele>
        <time>2022-07-24T07:35:40.619Z</time>
      </trkpt>
      <trkpt lat="43.78129" lon="4.17152">
        <ele>125.71181688744</ele>
        <time>2022-07-24T07:35:50.154Z</time>
      </trkpt>
      <trkpt lat="43.78114" lon="4.1715">
        <ele>125.3127707526</ele>
        <time>2022-07-24T07:35:59.957Z</time>
      </trkpt>
      <trkpt lat="43.78103" lon="4.17149">
        <ele>124.0848694179</ele>
        <time>2022-07-24T07:36:09.540Z</time>
      </trkpt>
      <trkpt lat="43.78095" lon="4.17139">
        <ele>122.44550474356</ele>
        <time>2022-07-24T07:36:19.000Z</time>
      </trkpt>
      <trkpt lat="43.78094" lon="4.17124">
        <ele>120.68361800596</ele>
        <time>2022-07-24T07:36:29.038Z</time>
      </trkpt>
      <trkpt lat="43.78103" lon="4.17113">
        <ele>120.26349061659</ele>
        <time>2022-07-24T07:36:39.037Z</time>
      </trkpt>
      <trkpt lat="43.78111" lon="4.17105">
        <ele>119.78516131749</ele>
        <time>2022-07-24T07:36:48.696Z</time>
      </trkpt>
      <trkpt lat="43.78119" lon="4.17095">
        <ele>118.24942942702</ele>
        <time>2022-07-24T07:36:58.136Z</time>
      </trkpt>
      <trkpt lat="43.78131" lon="4.17087">
        <ele>116.83205070142</ele>
        <time>2022-07-24T07:37:07.975Z</time>
      </trkpt>
      <trkpt lat="43.78142" lon="4.1708">
        <ele>115.44056934865</ele>
        <time>2022-07-24T07:37:17.634Z</time>
      </trkpt>
      <trkpt lat="43.78157" lon="4.17071">
        <ele>113.51062708734</ele>
        <time>2022-07-24T07:37:27.000Z</time>
      </trkpt>
      <trkpt lat="43.78166" lon="4.17067">
        <ele>112.25172320297</ele>
        <time>2022-07-24T07:37:36.054Z</time>
      </trkpt>
      <trkpt lat="43.78179" lon="4.17062">
        <ele>110.21877705511</ele>
        <time>2022-07-24T07:37:45.862Z</time>
      </trkpt>
      <trkpt lat="43.7819" lon="4.17054">
        <ele>108.25053587262</ele>
        <time>2022-07-24T07:37:55.034Z</time>
      </trkpt>
      <trkpt lat="43.78199" lon="4.17043">
        <ele>106.06642262614</ele>
        <time>2022-07-24T07:38:04.635Z</time>
      </trkpt>
      <trkpt lat="43.78212" lon="4.17032">
        <ele>104.19335624863</ele>
        <time>2022-07-24T07:38:14.180Z</time>
      </trkpt>
      <trkpt lat="43.78225" lon="4.17027">
        <ele>102.69494988511</ele>
        <time>2022-07-24T07:38:23.821Z</time>
      </trkpt>
      <trkpt lat="43.78239" lon="4.17022">
        <ele>101.07972481654</ele>
        <time>2022-07-24T07:38:33.741Z</time>
      </trkpt>
      <trkpt lat="43.78251" lon="4.17013">
        <ele>99.737515742451</ele>
        <time>2022-07-24T07:38:44.101Z</time>
      </trkpt>
      <trkpt lat="43.78261" lon="4.17007">
        <ele>98.351213575975</ele>
        <time>2022-07-24T07:38:53.802Z</time>
      </trkpt>
      <trkpt lat="43.7827" lon="4.16995">
        <ele>97.115711884633</ele>
        <time>2022-07-24T07:39:03.215Z</time>
      </trkpt>
      <trkpt lat="43.78278" lon="4.16982">
        <ele>95.961152058635</ele>
        <time>2022-07-24T07:39:12.978Z</time>
      </trkpt>
      <trkpt lat="43.78287" lon="4.16973">
        <ele>94.718456708071</ele>
        <time>2022-07-24T07:39:22.817Z</time>
      </trkpt>
      <trkpt lat="43.78298" lon="4.16965">
        <ele>94.050097277243</ele>
        <time>2022-07-24T07:39:32.596Z</time>
      </trkpt>
      <trkpt lat="43.78308" lon="4.16954">
        <ele>92.480233214419</ele>
        <time>2022-07-24T07:39:41.697Z</time>
      </trkpt>
      <trkpt lat="43.78316" lon="4.16938">
        <ele>89.299039984112</ele>
        <time>2022-07-24T07:39:51.073Z</time>
      </trkpt>
      <trkpt lat="43.78321" lon="4.16919">
        <ele>86.453636405853</ele>
        <time>2022-07-24T07:40:00.692Z</time>
      </trkpt>
      <trkpt lat="43.78325" lon="4.16901">
        <ele>85.197957935823</ele>
        <time>2022-07-24T07:40:10.685Z</time>
      </trkpt>
      <trkpt lat="43.78328" lon="4.16883">
        <ele>84.212451492851</ele>
        <time>2022-07-24T07:40:20.161Z</time>
      </trkpt>
      <trkpt lat="43.78327" lon="4.16876">
        <ele>83.807243835811</ele>
        <time>2022-07-24T07:40:30.120Z</time>
      </trkpt>
      <trkpt lat="43.78326" lon="4.16868">
        <ele>83.143926655409</ele>
        <time>2022-07-24T07:40:40.000Z</time>
      </trkpt>
      <trkpt lat="43.78327" lon="4.16859">
        <ele>82.453186793975</ele>
        <time>2022-07-24T07:40:49.199Z</time>
      </trkpt>
      <trkpt lat="43.78341" lon="4.16866">
        <ele>82.545681933576</ele>
        <time>2022-07-24T07:40:58.840Z</time>
      </trkpt>
      <trkpt lat="43.78354" lon="4.16877">
        <ele>82.712308478019</ele>
        <time>2022-07-24T07:41:08.000Z</time>
      </trkpt>
      <trkpt lat="43.78364" lon="4.16882">
        <ele>82.824273628993</ele>
        <time>2022-07-24T07:41:17.018Z</time>
      </trkpt>
      <trkpt lat="43.78376" lon="4.1688">
        <ele>82.797322481204</ele>
        <time>2022-07-24T07:41:26.037Z</time>
      </trkpt>
      <trkpt lat="43.78383" lon="4.16864">
        <ele>83.324960198353</ele>
        <time>2022-07-24T07:41:35.757Z</time>
      </trkpt>
      <trkpt lat="43.78386" lon="4.16843">
        <ele>86.164258787472</ele>
        <time>2022-07-24T07:41:44.994Z</time>
      </trkpt>
      <trkpt lat="43.78385" lon="4.16823">
        <ele>86.867257644773</ele>
        <time>2022-07-24T07:41:54.934Z</time>
      </trkpt>
      <trkpt lat="43.78382" lon="4.16806">
        <ele>86.941192535034</ele>
        <time>2022-07-24T07:42:04.464Z</time>
      </trkpt>
      <trkpt lat="43.78381" lon="4.16788">
        <ele>87.258982804186</ele>
        <time>2022-07-24T07:42:14.120Z</time>
      </trkpt>
      <trkpt lat="43.78379" lon="4.16772">
        <ele>87.727594289566</ele>
        <time>2022-07-24T07:42:23.178Z</time>
      </trkpt>
      <trkpt lat="43.78375" lon="4.16759">
        <ele>87.991017230142</ele>
        <time>2022-07-24T07:42:32.197Z</time>
      </trkpt>
      <trkpt lat="43.78363" lon="4.16752">
        <ele>88.327638662365</ele>
        <time>2022-07-24T07:42:41.700Z</time>
      </trkpt>
      <trkpt lat="43.78349" lon="4.16741">
        <ele>88.390308521086</ele>
        <time>2022-07-24T07:42:50.999Z</time>
      </trkpt>
      <trkpt lat="43.78341" lon="4.16732">
        <ele>88.148260977971</ele>
        <time>2022-07-24T07:43:00.638Z</time>
      </trkpt>
      <trkpt lat="43.78333" lon="4.16722">
        <ele>88.00871633044</ele>
        <time>2022-07-24T07:43:09.978Z</time>
      </trkpt>
      <trkpt lat="43.78325" lon="4.16712">
        <ele>87.711732567786</ele>
        <time>2022-07-24T07:43:19.696Z</time>
      </trkpt>
      <trkpt lat="43.78315" lon="4.16701">
        <ele>87.215565528296</ele>
        <time>2022-07-24T07:43:30.076Z</time>
      </trkpt>
      <trkpt lat="43.78305" lon="4.16687">
        <ele>88.052616494677</ele>
        <time>2022-07-24T07:43:40.594Z</time>
      </trkpt>
      <trkpt lat="43.78296" lon="4.16676">
        <ele>88.860756534486</ele>
        <time>2022-07-24T07:43:51.037Z</time>
      </trkpt>
      <trkpt lat="43.78291" lon="4.16661">
        <ele>89.676702959614</ele>
        <time>2022-07-24T07:44:00.955Z</time>
      </trkpt>
      <trkpt lat="43.78289" lon="4.16646">
        <ele>90.65276290687</ele>
        <time>2022-07-24T07:44:10.634Z</time>
      </trkpt>
      <trkpt lat="43.78288" lon="4.16632">
        <ele>91.565912726646</ele>
        <time>2022-07-24T07:44:19.914Z</time>
      </trkpt>
      <trkpt lat="43.78287" lon="4.16618">
        <ele>92.688350148956</ele>
        <time>2022-07-24T07:44:29.724Z</time>
      </trkpt>
      <trkpt lat="43.78287" lon="4.16606">
        <ele>93.858577166334</ele>
        <time>2022-07-24T07:44:38.983Z</time>
      </trkpt>
      <trkpt lat="43.78283" lon="4.16595">
        <ele>94.331993769658</ele>
        <time>2022-07-24T07:44:48.244Z</time>
      </trkpt>
      <trkpt lat="43.78276" lon="4.16581">
        <ele>94.2880460317</ele>
        <time>2022-07-24T07:44:58.172Z</time>
      </trkpt>
      <trkpt lat="43.7827" lon="4.16565">
        <ele>94.976310473985</ele>
        <time>2022-07-24T07:45:07.524Z</time>
      </trkpt>
      <trkpt lat="43.78265" lon="4.16549">
        <ele>95.343407806661</ele>
        <time>2022-07-24T07:45:16.842Z</time>
      </trkpt>
      <trkpt lat="43.78258" lon="4.16534">
        <ele>95.468191566069</ele>
        <time>2022-07-24T07:45:26.003Z</time>
      </trkpt>
      <trkpt lat="43.78252" lon="4.16518">
        <ele>95.629983811498</ele>
        <time>2022-07-24T07:45:35.062Z</time>
      </trkpt>
      <trkpt lat="43.78244" lon="4.16504">
        <ele>94.892750911101</ele>
        <time>2022-07-24T07:45:44.702Z</time>
      </trkpt>
      <trkpt lat="43.78237" lon="4.16488">
        <ele>93.963839088014</ele>
        <time>2022-07-24T07:45:54.603Z</time>
      </trkpt>
      <trkpt lat="43.78236" lon="4.16472">
        <ele>93.221180928804</ele>
        <time>2022-07-24T07:46:03.940Z</time>
      </trkpt>
      <trkpt lat="43.78233" lon="4.16458">
        <ele>91.953872051647</ele>
        <time>2022-07-24T07:46:13.779Z</time>
      </trkpt>
      <trkpt lat="43.78228" lon="4.16445">
        <ele>90.432240463428</ele>
        <time>2022-07-24T07:46:22.999Z</time>
      </trkpt>
      <trkpt lat="43.78225" lon="4.16432">
        <ele>88.838426110356</ele>
        <time>2022-07-24T07:46:32.999Z</time>
      </trkpt>
      <trkpt lat="43.78222" lon="4.16419">
        <ele>87.99635519992</ele>
        <time>2022-07-24T07:46:42.999Z</time>
      </trkpt>
      <trkpt lat="43.78222" lon="4.16406">
        <ele>87.458176472455</ele>
        <time>2022-07-24T07:46:52.999Z</time>
      </trkpt>
      <trkpt lat="43.78219" lon="4.1639">
        <ele>86.886577717615</ele>
        <time>2022-07-24T07:47:02.920Z</time>
      </trkpt>
      <trkpt lat="43.7821" lon="4.16374">
        <ele>86.429771840496</ele>
        <time>2022-07-24T07:47:11.999Z</time>
      </trkpt>
      <trkpt lat="43.78205" lon="4.16359">
        <ele>86.812306576976</ele>
        <time>2022-07-24T07:47:22.040Z</time>
      </trkpt>
      <trkpt lat="43.78197" lon="4.16344">
        <ele>87.564597871659</ele>
        <time>2022-07-24T07:47:32.936Z</time>
      </trkpt>
      <trkpt lat="43.78196" lon="4.16343">
        <ele>87.660105390259</ele>
        <time>2022-07-24T07:47:41.999Z</time>
      </trkpt>
      <trkpt lat="43.78195" lon="4.16343">
        <ele>87.580607699949</ele>
        <time>2022-07-24T07:47:51.999Z</time>
      </trkpt>
      <trkpt lat="43.78195" lon="4.16342">
        <ele>87.702991173216</ele>
        <time>2022-07-24T07:48:01.999Z</time>
      </trkpt>
      <trkpt lat="43.78195" lon="4.16343">
        <ele>87.616029965004</ele>
        <time>2022-07-24T07:49:03.999Z</time>
      </trkpt>
      <trkpt lat="43.78196" lon="4.16342">
        <ele>87.71266599465</ele>
        <time>2022-07-24T07:49:18.337Z</time>
      </trkpt>
      <trkpt lat="43.78206" lon="4.16337">
        <ele>88.380104635139</ele>
        <time>2022-07-24T07:49:27.661Z</time>
      </trkpt>
      <trkpt lat="43.78219" lon="4.16335">
        <ele>88.786752984124</ele>
        <time>2022-07-24T07:49:37.096Z</time>
      </trkpt>
      <trkpt lat="43.78232" lon="4.16338">
        <ele>88.750167356016</ele>
        <time>2022-07-24T07:49:46.835Z</time>
      </trkpt>
      <trkpt lat="43.78246" lon="4.16332">
        <ele>89.057699776299</ele>
        <time>2022-07-24T07:49:57.005Z</time>
      </trkpt>
      <trkpt lat="43.78256" lon="4.16328">
        <ele>89.29801808184</ele>
        <time>2022-07-24T07:50:06.006Z</time>
      </trkpt>
      <trkpt lat="43.78267" lon="4.16321">
        <ele>90.150011122506</ele>
        <time>2022-07-24T07:50:15.267Z</time>
      </trkpt>
      <trkpt lat="43.78278" lon="4.16311">
        <ele>90.740485090729</ele>
        <time>2022-07-24T07:50:24.937Z</time>
      </trkpt>
      <trkpt lat="43.78288" lon="4.16302">
        <ele>91.443938474779</ele>
        <time>2022-07-24T07:50:34.929Z</time>
      </trkpt>
      <trkpt lat="43.78296" lon="4.16292">
        <ele>92.45595258367</ele>
        <time>2022-07-24T07:50:45.162Z</time>
      </trkpt>
      <trkpt lat="43.78298" lon="4.16293">
        <ele>92.332378728716</ele>
        <time>2022-07-24T07:52:59.000Z</time>
      </trkpt>
      <trkpt lat="43.78298" lon="4.16295">
        <ele>92.18218993414</ele>
        <time>2022-07-24T07:53:08.817Z</time>
      </trkpt>
      <trkpt lat="43.78301" lon="4.1629">
        <ele>92.654113854003</ele>
        <time>2022-07-24T07:53:17.857Z</time>
      </trkpt>
      <trkpt lat="43.78314" lon="4.16278">
        <ele>93.946839743637</ele>
        <time>2022-07-24T07:53:27.575Z</time>
      </trkpt>
      <trkpt lat="43.78326" lon="4.1627">
        <ele>95.36689028044</ele>
        <time>2022-07-24T07:53:37.254Z</time>
      </trkpt>
      <trkpt lat="43.78338" lon="4.16267">
        <ele>95.54626863155</ele>
        <time>2022-07-24T07:53:47.413Z</time>
      </trkpt>
      <trkpt lat="43.78349" lon="4.16258">
        <ele>95.919589879774</ele>
        <time>2022-07-24T07:53:57.493Z</time>
      </trkpt>
      <trkpt lat="43.78363" lon="4.16255">
        <ele>96.105305401209</ele>
        <time>2022-07-24T07:54:07.000Z</time>
      </trkpt>
      <trkpt lat="43.78374" lon="4.16254">
        <ele>96.202158875193</ele>
        <time>2022-07-24T07:54:16.704Z</time>
      </trkpt>
      <trkpt lat="43.78384" lon="4.16256">
        <ele>96.355346692846</ele>
        <time>2022-07-24T07:54:25.736Z</time>
      </trkpt>
      <trkpt lat="43.78397" lon="4.16258">
        <ele>96.530680481159</ele>
        <time>2022-07-24T07:54:35.000Z</time>
      </trkpt>
      <trkpt lat="43.78407" lon="4.1626">
        <ele>97.060461809155</ele>
        <time>2022-07-24T07:54:44.603Z</time>
      </trkpt>
      <trkpt lat="43.78417" lon="4.16258">
        <ele>97.751993670502</ele>
        <time>2022-07-24T07:54:53.783Z</time>
      </trkpt>
      <trkpt lat="43.78427" lon="4.16248">
        <ele>98.778926428324</ele>
        <time>2022-07-24T07:55:03.261Z</time>
      </trkpt>
      <trkpt lat="43.78434" lon="4.16241">
        <ele>99.921921566252</ele>
        <time>2022-07-24T07:55:13.082Z</time>
      </trkpt>
      <trkpt lat="43.78444" lon="4.1624">
        <ele>100.37632790283</ele>
        <time>2022-07-24T07:55:22.643Z</time>
      </trkpt>
      <trkpt lat="43.78456" lon="4.16238">
        <ele>100.73526176303</ele>
        <time>2022-07-24T07:55:32.043Z</time>
      </trkpt>
      <trkpt lat="43.78468" lon="4.16236">
        <ele>101.18607290986</ele>
        <time>2022-07-24T07:55:41.601Z</time>
      </trkpt>
      <trkpt lat="43.78478" lon="4.16229">
        <ele>101.73228189786</ele>
        <time>2022-07-24T07:55:50.939Z</time>
      </trkpt>
      <trkpt lat="43.78491" lon="4.16221">
        <ele>102.79934005532</ele>
        <time>2022-07-24T07:56:00.641Z</time>
      </trkpt>
      <trkpt lat="43.785" lon="4.16211">
        <ele>103.25771976893</ele>
        <time>2022-07-24T07:56:09.699Z</time>
      </trkpt>
      <trkpt lat="43.78508" lon="4.16201">
        <ele>104.51821264407</ele>
        <time>2022-07-24T07:56:19.038Z</time>
      </trkpt>
      <trkpt lat="43.78514" lon="4.16189">
        <ele>105.68462877939</ele>
        <time>2022-07-24T07:56:28.559Z</time>
      </trkpt>
      <trkpt lat="43.78526" lon="4.16185">
        <ele>105.94573444329</ele>
        <time>2022-07-24T07:56:37.718Z</time>
      </trkpt>
      <trkpt lat="43.78537" lon="4.16178">
        <ele>106.7498963795</ele>
        <time>2022-07-24T07:56:47.897Z</time>
      </trkpt>
      <trkpt lat="43.78546" lon="4.16163">
        <ele>107.71606343475</ele>
        <time>2022-07-24T07:56:58.115Z</time>
      </trkpt>
      <trkpt lat="43.78551" lon="4.16148">
        <ele>108.6878099982</ele>
        <time>2022-07-24T07:57:07.134Z</time>
      </trkpt>
      <trkpt lat="43.78551" lon="4.1613">
        <ele>109.61934286836</ele>
        <time>2022-07-24T07:57:16.214Z</time>
      </trkpt>
      <trkpt lat="43.7855" lon="4.16117">
        <ele>110.69417267131</ele>
        <time>2022-07-24T07:57:25.417Z</time>
      </trkpt>
      <trkpt lat="43.78549" lon="4.16103">
        <ele>112.16070438556</ele>
        <time>2022-07-24T07:57:34.697Z</time>
      </trkpt>
      <trkpt lat="43.7855" lon="4.16089">
        <ele>113.73293967581</ele>
        <time>2022-07-24T07:57:44.574Z</time>
      </trkpt>
      <trkpt lat="43.78551" lon="4.16078">
        <ele>114.52400490687</ele>
        <time>2022-07-24T07:57:53.861Z</time>
      </trkpt>
      <trkpt lat="43.78554" lon="4.16065">
        <ele>115.64536943431</ele>
        <time>2022-07-24T07:58:03.921Z</time>
      </trkpt>
      <trkpt lat="43.78553" lon="4.16052">
        <ele>116.74423340065</ele>
        <time>2022-07-24T07:58:13.681Z</time>
      </trkpt>
      <trkpt lat="43.78552" lon="4.1604">
        <ele>117.8838312111</ele>
        <time>2022-07-24T07:58:22.739Z</time>
      </trkpt>
      <trkpt lat="43.78549" lon="4.16027">
        <ele>119.2822246609</ele>
        <time>2022-07-24T07:58:32.001Z</time>
      </trkpt>
      <trkpt lat="43.78545" lon="4.16013">
        <ele>121.14973813964</ele>
        <time>2022-07-24T07:58:41.980Z</time>
      </trkpt>
      <trkpt lat="43.78542" lon="4.15999">
        <ele>122.7699254169</ele>
        <time>2022-07-24T07:58:51.780Z</time>
      </trkpt>
      <trkpt lat="43.78539" lon="4.1599">
        <ele>123.96453430099</ele>
        <time>2022-07-24T07:59:01.101Z</time>
      </trkpt>
      <trkpt lat="43.78535" lon="4.15982">
        <ele>124.85472498952</ele>
        <time>2022-07-24T07:59:11.040Z</time>
      </trkpt>
      <trkpt lat="43.78533" lon="4.15968">
        <ele>125.64096047664</ele>
        <time>2022-07-24T07:59:20.262Z</time>
      </trkpt>
      <trkpt lat="43.78527" lon="4.15959">
        <ele>127.18507935472</ele>
        <time>2022-07-24T07:59:29.797Z</time>
      </trkpt>
      <trkpt lat="43.78527" lon="4.15951">
        <ele>127.59188212326</ele>
        <time>2022-07-24T07:59:39.255Z</time>
      </trkpt>
      <trkpt lat="43.78527" lon="4.15932">
        <ele>129.50156544695</ele>
        <time>2022-07-24T07:59:48.772Z</time>
      </trkpt>
      <trkpt lat="43.78522" lon="4.15916">
        <ele>131.16961189747</ele>
        <time>2022-07-24T07:59:58.195Z</time>
      </trkpt>
      <trkpt lat="43.78517" lon="4.15904">
        <ele>131.80106321281</ele>
        <time>2022-07-24T08:00:07.536Z</time>
      </trkpt>
      <trkpt lat="43.78514" lon="4.15905">
        <ele>131.7599162824</ele>
        <time>2022-07-24T08:00:16.999Z</time>
      </trkpt>
      <trkpt lat="43.78516" lon="4.15891">
        <ele>132.48126999021</ele>
        <time>2022-07-24T08:00:26.999Z</time>
      </trkpt>
      <trkpt lat="43.78516" lon="4.15877">
        <ele>133.09883241177</ele>
        <time>2022-07-24T08:00:36.593Z</time>
      </trkpt>
      <trkpt lat="43.78516" lon="4.15859">
        <ele>133.66789802425</ele>
        <time>2022-07-24T08:00:45.999Z</time>
      </trkpt>
      <trkpt lat="43.78515" lon="4.15848">
        <ele>133.89183494334</ele>
        <time>2022-07-24T08:00:56.134Z</time>
      </trkpt>
      <trkpt lat="43.78509" lon="4.15839">
        <ele>133.94803777778</ele>
        <time>2022-07-24T08:01:05.635Z</time>
      </trkpt>
      <trkpt lat="43.78511" lon="4.15822">
        <ele>134.0768574341</ele>
        <time>2022-07-24T08:01:15.054Z</time>
      </trkpt>
      <trkpt lat="43.78516" lon="4.15808">
        <ele>134.22782611452</ele>
        <time>2022-07-24T08:01:24.191Z</time>
      </trkpt>
      <trkpt lat="43.7852" lon="4.15795">
        <ele>134.14605403074</ele>
        <time>2022-07-24T08:01:33.815Z</time>
      </trkpt>
      <trkpt lat="43.7852" lon="4.1578">
        <ele>133.88426165416</ele>
        <time>2022-07-24T08:01:43.554Z</time>
      </trkpt>
      <trkpt lat="43.7852" lon="4.15764">
        <ele>133.52488726853</ele>
        <time>2022-07-24T08:01:52.794Z</time>
      </trkpt>
      <trkpt lat="43.78518" lon="4.15756">
        <ele>133.26330323792</ele>
        <time>2022-07-24T08:02:01.999Z</time>
      </trkpt>
      <trkpt lat="43.78513" lon="4.15762">
        <ele>133.31723893602</ele>
        <time>2022-07-24T08:02:11.120Z</time>
      </trkpt>
      <trkpt lat="43.78513" lon="4.15759">
        <ele>133.21948838683</ele>
        <time>2022-07-24T08:02:20.843Z</time>
      </trkpt>
      <trkpt lat="43.78514" lon="4.15743">
        <ele>132.80691560628</ele>
        <time>2022-07-24T08:02:30.754Z</time>
      </trkpt>
      <trkpt lat="43.7852" lon="4.15724">
        <ele>132.56087701949</ele>
        <time>2022-07-24T08:02:39.834Z</time>
      </trkpt>
      <trkpt lat="43.78524" lon="4.15704">
        <ele>132.10923259128</ele>
        <time>2022-07-24T08:02:49.045Z</time>
      </trkpt>
      <trkpt lat="43.78521" lon="4.15688">
        <ele>131.63797526874</ele>
        <time>2022-07-24T08:02:58.962Z</time>
      </trkpt>
      <trkpt lat="43.78518" lon="4.15671">
        <ele>131.14338686828</ele>
        <time>2022-07-24T08:03:08.643Z</time>
      </trkpt>
      <trkpt lat="43.78524" lon="4.15658">
        <ele>130.87579065326</ele>
        <time>2022-07-24T08:03:17.999Z</time>
      </trkpt>
      <trkpt lat="43.78533" lon="4.1565">
        <ele>131.02140487253</ele>
        <time>2022-07-24T08:03:27.178Z</time>
      </trkpt>
      <trkpt lat="43.78544" lon="4.15644">
        <ele>131.24455480416</ele>
        <time>2022-07-24T08:03:37.101Z</time>
      </trkpt>
      <trkpt lat="43.78556" lon="4.15641">
        <ele>131.28493476554</ele>
        <time>2022-07-24T08:03:47.060Z</time>
      </trkpt>
      <trkpt lat="43.78565" lon="4.15634">
        <ele>131.2364191965</ele>
        <time>2022-07-24T08:03:56.317Z</time>
      </trkpt>
      <trkpt lat="43.78573" lon="4.15626">
        <ele>131.30805608849</ele>
        <time>2022-07-24T08:04:05.977Z</time>
      </trkpt>
      <trkpt lat="43.78582" lon="4.15616">
        <ele>131.29893302703</ele>
        <time>2022-07-24T08:04:15.038Z</time>
      </trkpt>
      <trkpt lat="43.78593" lon="4.15609">
        <ele>131.64602620359</ele>
        <time>2022-07-24T08:04:24.735Z</time>
      </trkpt>
      <trkpt lat="43.78596" lon="4.15606">
        <ele>131.73625645485</ele>
        <time>2022-07-24T08:04:35.299Z</time>
      </trkpt>
      <trkpt lat="43.78608" lon="4.15597">
        <ele>131.92822647369</ele>
        <time>2022-07-24T08:04:44.999Z</time>
      </trkpt>
      <trkpt lat="43.78614" lon="4.15591">
        <ele>131.96613756871</ele>
        <time>2022-07-24T08:04:54.999Z</time>
      </trkpt>
      <trkpt lat="43.78626" lon="4.15581">
        <ele>132.00358140892</ele>
        <time>2022-07-24T08:05:04.622Z</time>
      </trkpt>
      <trkpt lat="43.78637" lon="4.1557">
        <ele>131.93310592289</ele>
        <time>2022-07-24T08:05:13.773Z</time>
      </trkpt>
      <trkpt lat="43.78647" lon="4.15556">
        <ele>131.80098925574</ele>
        <time>2022-07-24T08:05:23.854Z</time>
      </trkpt>
      <trkpt lat="43.78655" lon="4.15548">
        <ele>131.65885146915</ele>
        <time>2022-07-24T08:05:33.842Z</time>
      </trkpt>
      <trkpt lat="43.78665" lon="4.15543">
        <ele>131.46861053391</ele>
        <time>2022-07-24T08:05:43.964Z</time>
      </trkpt>
      <trkpt lat="43.78676" lon="4.15536">
        <ele>131.13745951019</ele>
        <time>2022-07-24T08:05:53.914Z</time>
      </trkpt>
      <trkpt lat="43.78688" lon="4.15534">
        <ele>130.70425243867</ele>
        <time>2022-07-24T08:06:03.856Z</time>
      </trkpt>
      <trkpt lat="43.78698" lon="4.15532">
        <ele>130.26016933365</ele>
        <time>2022-07-24T08:06:12.982Z</time>
      </trkpt>
      <trkpt lat="43.7871" lon="4.15533">
        <ele>129.60572358178</ele>
        <time>2022-07-24T08:06:22.443Z</time>
      </trkpt>
      <trkpt lat="43.78722" lon="4.15537">
        <ele>128.91992923643</ele>
        <time>2022-07-24T08:06:32.141Z</time>
      </trkpt>
      <trkpt lat="43.78733" lon="4.15535">
        <ele>128.53228309932</ele>
        <time>2022-07-24T08:06:41.363Z</time>
      </trkpt>
      <trkpt lat="43.7874" lon="4.15533">
        <ele>128.76877911039</ele>
        <time>2022-07-24T08:06:50.680Z</time>
      </trkpt>
      <trkpt lat="43.7875" lon="4.15539">
        <ele>129.49120413748</ele>
        <time>2022-07-24T08:06:59.820Z</time>
      </trkpt>
      <trkpt lat="43.78761" lon="4.15541">
        <ele>130.35014068589</ele>
        <time>2022-07-24T08:07:09.602Z</time>
      </trkpt>
      <trkpt lat="43.78774" lon="4.15541">
        <ele>131.0970711402</ele>
        <time>2022-07-24T08:07:19.059Z</time>
      </trkpt>
      <trkpt lat="43.78786" lon="4.15532">
        <ele>131.57585944198</ele>
        <time>2022-07-24T08:07:28.100Z</time>
      </trkpt>
      <trkpt lat="43.78796" lon="4.15526">
        <ele>131.8382703941</ele>
        <time>2022-07-24T08:07:39.022Z</time>
      </trkpt>
      <trkpt lat="43.78806" lon="4.15511">
        <ele>131.89720987509</ele>
        <time>2022-07-24T08:07:49.217Z</time>
      </trkpt>
      <trkpt lat="43.78808" lon="4.15492">
        <ele>131.5762310211</ele>
        <time>2022-07-24T08:07:59.000Z</time>
      </trkpt>
      <trkpt lat="43.78811" lon="4.15483">
        <ele>131.41631475956</ele>
        <time>2022-07-24T08:08:08.260Z</time>
      </trkpt>
      <trkpt lat="43.78815" lon="4.15471">
        <ele>131.22079975186</ele>
        <time>2022-07-24T08:08:17.840Z</time>
      </trkpt>
      <trkpt lat="43.78818" lon="4.15455">
        <ele>130.84129606384</ele>
        <time>2022-07-24T08:08:27.000Z</time>
      </trkpt>
      <trkpt lat="43.78821" lon="4.1544">
        <ele>130.51104891542</ele>
        <time>2022-07-24T08:08:37.000Z</time>
      </trkpt>
      <trkpt lat="43.78828" lon="4.15428">
        <ele>130.18050757901</ele>
        <time>2022-07-24T08:08:46.700Z</time>
      </trkpt>
      <trkpt lat="43.78829" lon="4.1541">
        <ele>129.54933403837</ele>
        <time>2022-07-24T08:08:55.932Z</time>
      </trkpt>
      <trkpt lat="43.78832" lon="4.15394">
        <ele>128.95962521578</ele>
        <time>2022-07-24T08:09:05.641Z</time>
      </trkpt>
      <trkpt lat="43.78836" lon="4.15379">
        <ele>128.35934912933</ele>
        <time>2022-07-24T08:09:15.000Z</time>
      </trkpt>
      <trkpt lat="43.78839" lon="4.15365">
        <ele>127.89888999404</ele>
        <time>2022-07-24T08:09:25.000Z</time>
      </trkpt>
      <trkpt lat="43.78839" lon="4.15352">
        <ele>127.47713508779</ele>
        <time>2022-07-24T08:09:35.138Z</time>
      </trkpt>
      <trkpt lat="43.78841" lon="4.15336">
        <ele>127.07810811785</ele>
        <time>2022-07-24T08:09:45.839Z</time>
      </trkpt>
      <trkpt lat="43.78844" lon="4.15322">
        <ele>126.9250505172</ele>
        <time>2022-07-24T08:09:55.000Z</time>
      </trkpt>
      <trkpt lat="43.78844" lon="4.15313">
        <ele>126.85217444021</ele>
        <time>2022-07-24T08:10:04.378Z</time>
      </trkpt>
      <trkpt lat="43.78846" lon="4.15299">
        <ele>126.67247449672</ele>
        <time>2022-07-24T08:10:13.697Z</time>
      </trkpt>
      <trkpt lat="43.78852" lon="4.15284">
        <ele>126.23408114959</ele>
        <time>2022-07-24T08:10:23.000Z</time>
      </trkpt>
      <trkpt lat="43.78844" lon="4.1527">
        <ele>126.48049670031</ele>
        <time>2022-07-24T08:10:34.099Z</time>
      </trkpt>
      <trkpt lat="43.78846" lon="4.15251">
        <ele>125.82412210341</ele>
        <time>2022-07-24T08:10:44.000Z</time>
      </trkpt>
      <trkpt lat="43.78852" lon="4.15242">
        <ele>125.17634390765</ele>
        <time>2022-07-24T08:10:54.058Z</time>
      </trkpt>
      <trkpt lat="43.78857" lon="4.15233">
        <ele>124.58350138175</ele>
        <time>2022-07-24T08:11:04.038Z</time>
      </trkpt>
      <trkpt lat="43.78865" lon="4.15224">
        <ele>123.49208530326</ele>
        <time>2022-07-24T08:11:14.237Z</time>
      </trkpt>
      <trkpt lat="43.78865" lon="4.15211">
        <ele>123.09542859845</ele>
        <time>2022-07-24T08:11:24.138Z</time>
      </trkpt>
      <trkpt lat="43.78866" lon="4.15197">
        <ele>122.35055302899</ele>
        <time>2022-07-24T08:11:34.000Z</time>
      </trkpt>
      <trkpt lat="43.7887" lon="4.15188">
        <ele>121.35034707671</ele>
        <time>2022-07-24T08:11:44.000Z</time>
      </trkpt>
      <trkpt lat="43.78875" lon="4.15177">
        <ele>119.9522540767</ele>
        <time>2022-07-24T08:11:54.000Z</time>
      </trkpt>
      <trkpt lat="43.78879" lon="4.1517">
        <ele>118.85655874937</ele>
        <time>2022-07-24T08:12:03.020Z</time>
      </trkpt>
      <trkpt lat="43.78886" lon="4.15163">
        <ele>117.02925529381</ele>
        <time>2022-07-24T08:12:12.538Z</time>
      </trkpt>
      <trkpt lat="43.78892" lon="4.1516">
        <ele>115.61530650714</ele>
        <time>2022-07-24T08:12:22.938Z</time>
      </trkpt>
      <trkpt lat="43.78898" lon="4.15163">
        <ele>115.11556444201</ele>
        <time>2022-07-24T08:12:32.939Z</time>
      </trkpt>
      <trkpt lat="43.78905" lon="4.15147">
        <ele>113.23336179508</ele>
        <time>2022-07-24T08:12:42.000Z</time>
      </trkpt>
      <trkpt lat="43.78906" lon="4.15149">
        <ele>113.30939156566</ele>
        <time>2022-07-24T08:12:51.999Z</time>
      </trkpt>
      <trkpt lat="43.78906" lon="4.1515">
        <ele>113.35518361243</ele>
        <time>2022-07-24T08:13:06.999Z</time>
      </trkpt>
      <trkpt lat="43.78908" lon="4.15152">
        <ele>113.48751393626</ele>
        <time>2022-07-24T08:13:16.999Z</time>
      </trkpt>
      <trkpt lat="43.78915" lon="4.15162">
        <ele>113.9680370862</ele>
        <time>2022-07-24T08:13:28.082Z</time>
      </trkpt>
      <trkpt lat="43.78913" lon="4.15173">
        <ele>114.42471811967</ele>
        <time>2022-07-24T08:13:37.476Z</time>
      </trkpt>
      <trkpt lat="43.78913" lon="4.15187">
        <ele>115.0720169025</ele>
        <time>2022-07-24T08:13:46.955Z</time>
      </trkpt>
      <trkpt lat="43.78913" lon="4.15208">
        <ele>115.85422679533</ele>
        <time>2022-07-24T08:13:56.855Z</time>
      </trkpt>
      <trkpt lat="43.78917" lon="4.15221">
        <ele>116.06877751771</ele>
        <time>2022-07-24T08:14:05.934Z</time>
      </trkpt>
      <trkpt lat="43.78916" lon="4.15237">
        <ele>116.67430941639</ele>
        <time>2022-07-24T08:14:15.932Z</time>
      </trkpt>
      <trkpt lat="43.78919" lon="4.15252">
        <ele>116.96395241173</ele>
        <time>2022-07-24T08:14:25.111Z</time>
      </trkpt>
      <trkpt lat="43.78916" lon="4.15267">
        <ele>117.95618458307</ele>
        <time>2022-07-24T08:14:34.352Z</time>
      </trkpt>
      <trkpt lat="43.78917" lon="4.15283">
        <ele>118.56696638324</ele>
        <time>2022-07-24T08:14:44.133Z</time>
      </trkpt>
      <trkpt lat="43.78921" lon="4.15298">
        <ele>119.12439321421</ele>
        <time>2022-07-24T08:14:54.103Z</time>
      </trkpt>
      <trkpt lat="43.78926" lon="4.15313">
        <ele>119.54397625215</ele>
        <time>2022-07-24T08:15:04.161Z</time>
      </trkpt>
      <trkpt lat="43.78935" lon="4.15323">
        <ele>119.87613339859</ele>
        <time>2022-07-24T08:15:13.180Z</time>
      </trkpt>
      <trkpt lat="43.78944" lon="4.1533">
        <ele>120.18505190877</ele>
        <time>2022-07-24T08:15:23.022Z</time>
      </trkpt>
      <trkpt lat="43.78957" lon="4.15337">
        <ele>120.34511841702</ele>
        <time>2022-07-24T08:15:33.580Z</time>
      </trkpt>
      <trkpt lat="43.78969" lon="4.15344">
        <ele>120.77058855772</ele>
        <time>2022-07-24T08:15:43.722Z</time>
      </trkpt>
      <trkpt lat="43.78981" lon="4.1535">
        <ele>120.96889521053</ele>
        <time>2022-07-24T08:15:53.640Z</time>
      </trkpt>
      <trkpt lat="43.78993" lon="4.15358">
        <ele>121.5320413175</ele>
        <time>2022-07-24T08:16:04.060Z</time>
      </trkpt>
      <trkpt lat="43.79008" lon="4.15363">
        <ele>121.92557812553</ele>
        <time>2022-07-24T08:16:13.862Z</time>
      </trkpt>
      <trkpt lat="43.79019" lon="4.1537">
        <ele>122.22845563014</ele>
        <time>2022-07-24T08:16:23.900Z</time>
      </trkpt>
      <trkpt lat="43.79029" lon="4.15377">
        <ele>122.51693095234</ele>
        <time>2022-07-24T08:16:32.938Z</time>
      </trkpt>
      <trkpt lat="43.79038" lon="4.15386">
        <ele>122.78234944339</ele>
        <time>2022-07-24T08:16:41.999Z</time>
      </trkpt>
      <trkpt lat="43.79048" lon="4.15398">
        <ele>123.12837170678</ele>
        <time>2022-07-24T08:16:51.999Z</time>
      </trkpt>
      <trkpt lat="43.79058" lon="4.15407">
        <ele>123.32121847172</ele>
        <time>2022-07-24T08:17:01.233Z</time>
      </trkpt>
      <trkpt lat="43.79071" lon="4.15417">
        <ele>123.58120861763</ele>
        <time>2022-07-24T08:17:11.082Z</time>
      </trkpt>
      <trkpt lat="43.79081" lon="4.15425">
        <ele>123.77533132306</ele>
        <time>2022-07-24T08:17:21.159Z</time>
      </trkpt>
      <trkpt lat="43.79079" lon="4.15435">
        <ele>123.850938657</ele>
        <time>2022-07-24T08:21:03.658Z</time>
      </trkpt>
      <trkpt lat="43.79072" lon="4.15448">
        <ele>123.83361295638</ele>
        <time>2022-07-24T08:21:13.096Z</time>
      </trkpt>
      <trkpt lat="43.7907" lon="4.1546">
        <ele>123.78635501344</ele>
        <time>2022-07-24T08:21:22.817Z</time>
      </trkpt>
      <trkpt lat="43.7907" lon="4.15463">
        <ele>123.74819323566</ele>
        <time>2022-07-24T08:21:32.779Z</time>
      </trkpt>
      <trkpt lat="43.79068" lon="4.15488">
        <ele>123.47213363418</ele>
        <time>2022-07-24T08:21:42.999Z</time>
      </trkpt>
      <trkpt lat="43.79065" lon="4.15514">
        <ele>123.5239475573</ele>
        <time>2022-07-24T08:21:52.477Z</time>
      </trkpt>
      <trkpt lat="43.79066" lon="4.15535">
        <ele>123.51241594762</ele>
        <time>2022-07-24T08:22:02.000Z</time>
      </trkpt>
      <trkpt lat="43.79068" lon="4.1555">
        <ele>122.88261247715</ele>
        <time>2022-07-24T08:22:11.976Z</time>
      </trkpt>
      <trkpt lat="43.79069" lon="4.15567">
        <ele>122.02443216165</ele>
        <time>2022-07-24T08:22:21.754Z</time>
      </trkpt>
      <trkpt lat="43.7907" lon="4.15585">
        <ele>120.91267851578</ele>
        <time>2022-07-24T08:22:31.000Z</time>
      </trkpt>
      <trkpt lat="43.79068" lon="4.15595">
        <ele>120.62783966819</ele>
        <time>2022-07-24T08:22:40.192Z</time>
      </trkpt>
      <trkpt lat="43.79068" lon="4.15614">
        <ele>118.77602782252</ele>
        <time>2022-07-24T08:22:49.934Z</time>
      </trkpt>
      <trkpt lat="43.79066" lon="4.15629">
        <ele>117.34110835941</ele>
        <time>2022-07-24T08:22:58.976Z</time>
      </trkpt>
      <trkpt lat="43.79061" lon="4.15642">
        <ele>116.78235233819</ele>
        <time>2022-07-24T08:23:08.092Z</time>
      </trkpt>
      <trkpt lat="43.7905" lon="4.15652">
        <ele>116.79807288034</ele>
        <time>2022-07-24T08:23:17.740Z</time>
      </trkpt>
      <trkpt lat="43.79043" lon="4.15671">
        <ele>116.07687471381</ele>
        <time>2022-07-24T08:23:27.401Z</time>
      </trkpt>
      <trkpt lat="43.79039" lon="4.1569">
        <ele>115.90338394926</ele>
        <time>2022-07-24T08:23:37.000Z</time>
      </trkpt>
      <trkpt lat="43.79035" lon="4.15699">
        <ele>115.80780128689</ele>
        <time>2022-07-24T08:23:47.000Z</time>
      </trkpt>
      <trkpt lat="43.79029" lon="4.15716">
        <ele>115.24438977823</ele>
        <time>2022-07-24T08:23:56.737Z</time>
      </trkpt>
      <trkpt lat="43.79025" lon="4.15732">
        <ele>114.75931996694</ele>
        <time>2022-07-24T08:24:05.876Z</time>
      </trkpt>
      <trkpt lat="43.79023" lon="4.15751">
        <ele>113.97675511025</ele>
        <time>2022-07-24T08:24:15.196Z</time>
      </trkpt>
      <trkpt lat="43.79021" lon="4.15769">
        <ele>113.41947621554</ele>
        <time>2022-07-24T08:24:24.757Z</time>
      </trkpt>
      <trkpt lat="43.79019" lon="4.15789">
        <ele>112.91390326519</ele>
        <time>2022-07-24T08:24:34.000Z</time>
      </trkpt>
      <trkpt lat="43.79014" lon="4.15801">
        <ele>112.8765049712</ele>
        <time>2022-07-24T08:24:43.055Z</time>
      </trkpt>
      <trkpt lat="43.7901" lon="4.15816">
        <ele>112.54158133453</ele>
        <time>2022-07-24T08:24:52.153Z</time>
      </trkpt>
      <trkpt lat="43.79009" lon="4.15833">
        <ele>111.92352870873</ele>
        <time>2022-07-24T08:25:01.564Z</time>
      </trkpt>
      <trkpt lat="43.7901" lon="4.15853">
        <ele>111.01983778681</ele>
        <time>2022-07-24T08:25:10.863Z</time>
      </trkpt>
      <trkpt lat="43.79004" lon="4.1587">
        <ele>110.81720793421</ele>
        <time>2022-07-24T08:25:20.802Z</time>
      </trkpt>
      <trkpt lat="43.78999" lon="4.15884">
        <ele>110.68342616947</ele>
        <time>2022-07-24T08:25:30.042Z</time>
      </trkpt>
      <trkpt lat="43.78998" lon="4.15901">
        <ele>110.61073380499</ele>
        <time>2022-07-24T08:25:39.082Z</time>
      </trkpt>
      <trkpt lat="43.79003" lon="4.15917">
        <ele>109.96111736201</ele>
        <time>2022-07-24T08:25:48.756Z</time>
      </trkpt>
      <trkpt lat="43.79004" lon="4.15933">
        <ele>109.52392682826</ele>
        <time>2022-07-24T08:25:58.233Z</time>
      </trkpt>
      <trkpt lat="43.78998" lon="4.1595">
        <ele>108.67216821451</ele>
        <time>2022-07-24T08:26:08.065Z</time>
      </trkpt>
      <trkpt lat="43.78991" lon="4.15971">
        <ele>108.18396627163</ele>
        <time>2022-07-24T08:26:18.962Z</time>
      </trkpt>
      <trkpt lat="43.78989" lon="4.15986">
        <ele>108.04877003827</ele>
        <time>2022-07-24T08:26:28.281Z</time>
      </trkpt>
      <trkpt lat="43.7899" lon="4.16003">
        <ele>107.57119481076</ele>
        <time>2022-07-24T08:26:37.341Z</time>
      </trkpt>
      <trkpt lat="43.78993" lon="4.1602">
        <ele>107.15943218814</ele>
        <time>2022-07-24T08:26:46.822Z</time>
      </trkpt>
      <trkpt lat="43.7899" lon="4.16036">
        <ele>106.86080028122</ele>
        <time>2022-07-24T08:26:56.139Z</time>
      </trkpt>
      <trkpt lat="43.78993" lon="4.16055">
        <ele>106.51327194928</ele>
        <time>2022-07-24T08:27:05.742Z</time>
      </trkpt>
      <trkpt lat="43.78994" lon="4.16073">
        <ele>106.36200621818</ele>
        <time>2022-07-24T08:27:14.758Z</time>
      </trkpt>
      <trkpt lat="43.78992" lon="4.16089">
        <ele>106.56204001878</ele>
        <time>2022-07-24T08:27:24.117Z</time>
      </trkpt>
      <trkpt lat="43.78989" lon="4.16107">
        <ele>107.90352435774</ele>
        <time>2022-07-24T08:27:34.000Z</time>
      </trkpt>
      <trkpt lat="43.78991" lon="4.1611">
        <ele>107.72855982214</ele>
        <time>2022-07-24T08:27:45.175Z</time>
      </trkpt>
      <trkpt lat="43.78988" lon="4.16126">
        <ele>108.23297415296</ele>
        <time>2022-07-24T08:27:54.213Z</time>
      </trkpt>
      <trkpt lat="43.78981" lon="4.16141">
        <ele>108.6908120404</ele>
        <time>2022-07-24T08:28:03.596Z</time>
      </trkpt>
      <trkpt lat="43.78976" lon="4.16157">
        <ele>108.05119523226</ele>
        <time>2022-07-24T08:28:12.953Z</time>
      </trkpt>
      <trkpt lat="43.78971" lon="4.16172">
        <ele>107.51353171853</ele>
        <time>2022-07-24T08:28:22.013Z</time>
      </trkpt>
      <trkpt lat="43.78976" lon="4.16187">
        <ele>106.20438905303</ele>
        <time>2022-07-24T08:28:31.020Z</time>
      </trkpt>
      <trkpt lat="43.78983" lon="4.16196">
        <ele>105.34913686708</ele>
        <time>2022-07-24T08:28:40.059Z</time>
      </trkpt>
      <trkpt lat="43.78991" lon="4.16205">
        <ele>103.98225436402</ele>
        <time>2022-07-24T08:28:50.059Z</time>
      </trkpt>
      <trkpt lat="43.78996" lon="4.16217">
        <ele>102.82006894725</ele>
        <time>2022-07-24T08:29:00.078Z</time>
      </trkpt>
      <trkpt lat="43.78993" lon="4.16235">
        <ele>102.182595262</ele>
        <time>2022-07-24T08:29:10.677Z</time>
      </trkpt>
      <trkpt lat="43.78985" lon="4.16244">
        <ele>101.81879317067</ele>
        <time>2022-07-24T08:29:19.977Z</time>
      </trkpt>
      <trkpt lat="43.78982" lon="4.16251">
        <ele>101.62724199778</ele>
        <time>2022-07-24T08:29:28.999Z</time>
      </trkpt>
      <trkpt lat="43.78994" lon="4.16261">
        <ele>101.65694940647</ele>
        <time>2022-07-24T08:29:38.834Z</time>
      </trkpt>
      <trkpt lat="43.79004" lon="4.16271">
        <ele>101.69574302377</ele>
        <time>2022-07-24T08:29:48.954Z</time>
      </trkpt>
      <trkpt lat="43.79016" lon="4.16282">
        <ele>102.04222067569</ele>
        <time>2022-07-24T08:29:58.874Z</time>
      </trkpt>
      <trkpt lat="43.79025" lon="4.16293">
        <ele>102.51392512134</ele>
        <time>2022-07-24T08:30:08.154Z</time>
      </trkpt>
      <trkpt lat="43.79037" lon="4.16297">
        <ele>103.12658227085</ele>
        <time>2022-07-24T08:30:18.232Z</time>
      </trkpt>
      <trkpt lat="43.79042" lon="4.16312">
        <ele>103.60031767262</ele>
        <time>2022-07-24T08:30:27.415Z</time>
      </trkpt>
      <trkpt lat="43.79051" lon="4.16321">
        <ele>105.20116975297</ele>
        <time>2022-07-24T08:30:36.593Z</time>
      </trkpt>
      <trkpt lat="43.7905" lon="4.16334">
        <ele>106.46582161205</ele>
        <time>2022-07-24T08:30:45.683Z</time>
      </trkpt>
      <trkpt lat="43.79042" lon="4.16346">
        <ele>106.90636179211</ele>
        <time>2022-07-24T08:30:54.823Z</time>
      </trkpt>
      <trkpt lat="43.79029" lon="4.16349">
        <ele>105.26407805931</ele>
        <time>2022-07-24T08:31:04.841Z</time>
      </trkpt>
      <trkpt lat="43.79018" lon="4.16359">
        <ele>105.43802289116</ele>
        <time>2022-07-24T08:31:14.242Z</time>
      </trkpt>
      <trkpt lat="43.79006" lon="4.16363">
        <ele>104.45628584489</ele>
        <time>2022-07-24T08:31:23.361Z</time>
      </trkpt>
      <trkpt lat="43.78995" lon="4.16372">
        <ele>104.88339479774</ele>
        <time>2022-07-24T08:31:33.002Z</time>
      </trkpt>
      <trkpt lat="43.78984" lon="4.16388">
        <ele>106.9058602153</ele>
        <time>2022-07-24T08:31:43.805Z</time>
      </trkpt>
      <trkpt lat="43.78976" lon="4.16395">
        <ele>107.28954916138</ele>
        <time>2022-07-24T08:31:53.085Z</time>
      </trkpt>
      <trkpt lat="43.78965" lon="4.16404">
        <ele>107.43498112709</ele>
        <time>2022-07-24T08:32:03.161Z</time>
      </trkpt>
      <trkpt lat="43.78955" lon="4.16416">
        <ele>108.15256168702</ele>
        <time>2022-07-24T08:32:12.622Z</time>
      </trkpt>
      <trkpt lat="43.78944" lon="4.16423">
        <ele>107.97909149092</ele>
        <time>2022-07-24T08:32:21.921Z</time>
      </trkpt>
      <trkpt lat="43.78934" lon="4.16434">
        <ele>108.0586227323</ele>
        <time>2022-07-24T08:32:31.602Z</time>
      </trkpt>
      <trkpt lat="43.78928" lon="4.16443">
        <ele>108.25363800235</ele>
        <time>2022-07-24T08:32:41.138Z</time>
      </trkpt>
      <trkpt lat="43.78921" lon="4.16448">
        <ele>107.48652941988</ele>
        <time>2022-07-24T08:32:50.156Z</time>
      </trkpt>
      <trkpt lat="43.78911" lon="4.16449">
        <ele>105.72105037036</ele>
        <time>2022-07-24T08:32:59.417Z</time>
      </trkpt>
      <trkpt lat="43.78906" lon="4.16444">
        <ele>103.9377010495</ele>
        <time>2022-07-24T08:33:08.876Z</time>
      </trkpt>
      <trkpt lat="43.78902" lon="4.1644">
        <ele>102.57898855211</ele>
        <time>2022-07-24T08:33:17.999Z</time>
      </trkpt>
      <trkpt lat="43.78901" lon="4.16438">
        <ele>102.09937799816</ele>
        <time>2022-07-24T08:33:27.999Z</time>
      </trkpt>
      <trkpt lat="43.78893" lon="4.16435">
        <ele>100.34527894899</ele>
        <time>2022-07-24T08:33:37.575Z</time>
      </trkpt>
      <trkpt lat="43.78888" lon="4.16449">
        <ele>100.7789540054</ele>
        <time>2022-07-24T08:33:46.594Z</time>
      </trkpt>
      <trkpt lat="43.78876" lon="4.16455">
        <ele>99.102548818345</ele>
        <time>2022-07-24T08:33:55.601Z</time>
      </trkpt>
      <trkpt lat="43.78873" lon="4.16473">
        <ele>100.20039555097</ele>
        <time>2022-07-24T08:34:05.621Z</time>
      </trkpt>
      <trkpt lat="43.78866" lon="4.16487">
        <ele>99.569467682745</ele>
        <time>2022-07-24T08:34:14.880Z</time>
      </trkpt>
      <trkpt lat="43.78867" lon="4.16502">
        <ele>101.07956591561</ele>
        <time>2022-07-24T08:34:24.159Z</time>
      </trkpt>
      <trkpt lat="43.78863" lon="4.16512">
        <ele>100.9821905102</ele>
        <time>2022-07-24T08:34:33.917Z</time>
      </trkpt>
      <trkpt lat="43.78861" lon="4.16521">
        <ele>101.49992506749</ele>
        <time>2022-07-24T08:34:42.999Z</time>
      </trkpt>
      <trkpt lat="43.78861" lon="4.16522">
        <ele>101.65514832231</ele>
        <time>2022-07-24T08:34:54.999Z</time>
      </trkpt>
      <trkpt lat="43.7886" lon="4.16523">
        <ele>101.54748569986</ele>
        <time>2022-07-24T08:35:17.999Z</time>
      </trkpt>
      <trkpt lat="43.78861" lon="4.16524">
        <ele>101.83099501125</ele>
        <time>2022-07-24T08:35:35.999Z</time>
      </trkpt>
      <trkpt lat="43.78861" lon="4.16525">
        <ele>102.13560046814</ele>
        <time>2022-07-24T08:35:49.999Z</time>
      </trkpt>
      <trkpt lat="43.78861" lon="4.16522">
        <ele>101.58350786075</ele>
        <time>2022-07-24T08:35:59.000Z</time>
      </trkpt>
      <trkpt lat="43.78853" lon="4.16531">
        <ele>100.38530235118</ele>
        <time>2022-07-24T08:36:09.937Z</time>
      </trkpt>
      <trkpt lat="43.78846" lon="4.16545">
        <ele>100.41307896037</ele>
        <time>2022-07-24T08:36:19.559Z</time>
      </trkpt>
      <trkpt lat="43.78836" lon="4.16557">
        <ele>98.940782742967</ele>
        <time>2022-07-24T08:36:29.000Z</time>
      </trkpt>
      <trkpt lat="43.78832" lon="4.1657">
        <ele>99.332938831481</ele>
        <time>2022-07-24T08:36:38.076Z</time>
      </trkpt>
      <trkpt lat="43.78827" lon="4.16585">
        <ele>99.983972431931</ele>
        <time>2022-07-24T08:36:47.213Z</time>
      </trkpt>
      <trkpt lat="43.78823" lon="4.16598">
        <ele>100.47479096244</ele>
        <time>2022-07-24T08:36:56.797Z</time>
      </trkpt>
      <trkpt lat="43.78817" lon="4.16613">
        <ele>100.81682035838</ele>
        <time>2022-07-24T08:37:06.716Z</time>
      </trkpt>
      <trkpt lat="43.78813" lon="4.16627">
        <ele>101.40726237773</ele>
        <time>2022-07-24T08:37:16.194Z</time>
      </trkpt>
      <trkpt lat="43.78804" lon="4.16645">
        <ele>100.50957712377</ele>
        <time>2022-07-24T08:37:26.696Z</time>
      </trkpt>
      <trkpt lat="43.78797" lon="4.16658">
        <ele>99.807752903193</ele>
        <time>2022-07-24T08:37:36.074Z</time>
      </trkpt>
      <trkpt lat="43.78799" lon="4.16674">
        <ele>101.60253332964</ele>
        <time>2022-07-24T08:37:46.000Z</time>
      </trkpt>
      <trkpt lat="43.78794" lon="4.16684">
        <ele>101.11222591612</ele>
        <time>2022-07-24T08:37:55.042Z</time>
      </trkpt>
      <trkpt lat="43.78788" lon="4.16701">
        <ele>100.86609132449</ele>
        <time>2022-07-24T08:38:04.621Z</time>
      </trkpt>
      <trkpt lat="43.78783" lon="4.16716">
        <ele>101.14387167624</ele>
        <time>2022-07-24T08:38:13.861Z</time>
      </trkpt>
      <trkpt lat="43.78778" lon="4.16729">
        <ele>101.28203063085</ele>
        <time>2022-07-24T08:38:23.177Z</time>
      </trkpt>
      <trkpt lat="43.78771" lon="4.16747">
        <ele>100.91020896982</ele>
        <time>2022-07-24T08:38:33.960Z</time>
      </trkpt>
      <trkpt lat="43.78766" lon="4.16762">
        <ele>101.31910560073</ele>
        <time>2022-07-24T08:38:43.135Z</time>
      </trkpt>
      <trkpt lat="43.78762" lon="4.16777">
        <ele>101.71843668829</ele>
        <time>2022-07-24T08:38:52.419Z</time>
      </trkpt>
      <trkpt lat="43.7876" lon="4.16789">
        <ele>102.35278244552</ele>
        <time>2022-07-24T08:39:01.541Z</time>
      </trkpt>
      <trkpt lat="43.78758" lon="4.16805">
        <ele>103.26174893461</ele>
        <time>2022-07-24T08:39:10.620Z</time>
      </trkpt>
      <trkpt lat="43.78757" lon="4.16822">
        <ele>104.36133544996</ele>
        <time>2022-07-24T08:39:19.960Z</time>
      </trkpt>
      <trkpt lat="43.78758" lon="4.16839">
        <ele>105.72960363583</ele>
        <time>2022-07-24T08:39:29.040Z</time>
      </trkpt>
      <trkpt lat="43.78755" lon="4.16854">
        <ele>106.270591735</ele>
        <time>2022-07-24T08:39:38.681Z</time>
      </trkpt>
      <trkpt lat="43.78753" lon="4.16868">
        <ele>106.49762064431</ele>
        <time>2022-07-24T08:39:48.040Z</time>
      </trkpt>
      <trkpt lat="43.78756" lon="4.16883">
        <ele>106.24129667759</ele>
        <time>2022-07-24T08:39:58.059Z</time>
      </trkpt>
      <trkpt lat="43.78754" lon="4.16899">
        <ele>105.22551266904</ele>
        <time>2022-07-24T08:40:07.817Z</time>
      </trkpt>
      <trkpt lat="43.78743" lon="4.16909">
        <ele>106.11761806533</ele>
        <time>2022-07-24T08:40:17.116Z</time>
      </trkpt>
      <trkpt lat="43.78732" lon="4.16919">
        <ele>107.29339844301</ele>
        <time>2022-07-24T08:40:27.154Z</time>
      </trkpt>
      <trkpt lat="43.7872" lon="4.1693">
        <ele>108.10865065243</ele>
        <time>2022-07-24T08:40:36.595Z</time>
      </trkpt>
      <trkpt lat="43.78711" lon="4.16937">
        <ele>108.92177475975</ele>
        <time>2022-07-24T08:40:46.036Z</time>
      </trkpt>
      <trkpt lat="43.78711" lon="4.16953">
        <ele>108.47525492644</ele>
        <time>2022-07-24T08:40:54.000Z</time>
      </trkpt>
    </trkseg>
  </trk>
</gpx>